Time;durP1;ratioP1;P1;durP2;ratioP2;P2;SDS_P1;SDS_P2;PMS_P1;PMS_P2;Temp;Humidity;BMP_temperature;BMP_pressure;BME280_temperature;BME280_humidity;BME280_pressure;Samples;Min_cycle;Max_cycle;Signal;HPM_P1;HPM_P2
2022/07/20 00:02:21;;;;;;;5.15;0.75;;;27.20;46.00;;;;;;5075551;28;20078;-76
2022/07/20 00:04:51;;;;;;;1.00;0.30;;;27.10;45.80;;;;;;5075484;28;20021;-76
2022/07/20 00:07:17;;;;;;;3.15;0.40;;;27.00;46.30;;;;;;5076114;28;20385;-76
2022/07/20 00:12:28;;;;;;;6.72;0.50;;;26.90;46.40;;;;;;5075651;28;20078;-76
2022/07/20 00:14:53;;;;;;;3.25;0.38;;;26.80;46.60;;;;;;5075603;28;20031;-76
2022/07/20 00:17:19;;;;;;;0.60;0.30;;;26.80;47.40;;;;;;5075299;28;20096;-76
2022/07/20 00:19:45;;;;;;;1.98;0.73;;;26.70;46.80;;;;;;5075164;28;20024;-76
2022/07/20 00:22:10;;;;;;;2.70;0.60;;;26.60;46.80;;;;;;5075432;28;20024;-76
2022/07/20 00:24:36;;;;;;;2.03;0.28;;;26.60;46.80;;;;;;5075126;28;20032;-76
2022/07/20 00:27:02;;;;;;;3.00;0.35;;;26.60;47.10;;;;;;5073498;28;20026;-76
2022/07/20 00:29:28;;;;;;;1.75;0.55;;;26.50;47.40;;;;;;5074644;28;20020;-76
2022/07/20 00:31:53;;;;;;;3.75;0.45;;;26.40;47.40;;;;;;5075259;28;20028;-76
2022/07/20 00:34:19;;;;;;;3.10;0.50;;;26.40;47.80;;;;;;5073646;28;20108;-76
2022/07/20 00:36:44;;;;;;;1.20;0.65;;;26.30;47.90;;;;;;5074854;28;20116;-77
2022/07/20 00:39:10;;;;;;;3.00;0.63;;;26.30;47.90;;;;;;5074763;28;20036;-77
2022/07/20 00:41:36;;;;;;;3.78;0.55;;;26.20;48.10;;;;;;5075038;28;20024;-77
2022/07/20 00:44:09;;;;;;;3.25;0.20;;;26.20;48.00;;;;;;5073495;28;20051;-77
2022/07/20 00:46:40;;;;;;;2.55;0.65;;;26.10;48.50;;;;;;5074627;28;20107;-77
2022/07/20 00:49:07;;;;;;;1.25;0.60;;;26.00;48.70;;;;;;5074391;28;20035;-77
2022/07/20 00:51:34;;;;;;;2.33;0.90;;;25.90;48.80;;;;;;5074627;28;20381;-77
2022/07/20 00:54:00;;;;;;;3.28;0.55;;;25.90;49.10;;;;;;5074528;28;20381;-77
2022/07/20 00:56:26;;;;;;;1.88;0.43;;;25.80;49.40;;;;;;5074635;28;20046;-77
2022/07/20 00:58:52;;;;;;;6.20;0.55;;;25.80;49.50;;;;;;5073150;28;20044;-77
2022/07/20 01:01:18;;;;;;;4.55;0.55;;;25.70;49.70;;;;;;5073123;28;20046;-77
2022/07/20 01:03:44;;;;;;;3.53;0.43;;;25.60;50.10;;;;;;5074282;28;20031;-77
2022/07/20 01:06:10;;;;;;;2.05;0.50;;;25.60;50.10;;;;;;5074128;28;20032;-77
2022/07/20 01:08:36;;;;;;;2.33;0.43;;;25.60;49.80;;;;;;5074081;28;20026;-77
2022/07/20 01:11:02;;;;;;;5.13;0.40;;;25.60;49.90;;;;;;5074032;28;20473;-77
2022/07/20 01:13:28;;;;;;;2.05;0.50;;;25.60;49.80;;;;;;5072833;28;20020;-77
2022/07/20 01:15:54;;;;;;;2.05;0.63;;;25.50;50.50;;;;;;5074362;28;20028;-77
2022/07/20 01:18:19;;;;;;;1.25;0.45;;;25.50;50.10;;;;;;5074565;28;20374;-77
2022/07/20 01:20:47;;;;;;;5.63;0.70;;;25.40;50.80;;;;;;5072574;28;20123;-77
2022/07/20 01:23:14;;;;;;;2.35;0.38;;;25.30;50.10;;;;;;5073923;28;20063;-77
2022/07/20 01:25:40;;;;;;;4.30;0.77;;;25.30;51.30;;;;;;5073904;28;20099;-77
2022/07/20 01:28:07;;;;;;;3.42;0.40;;;25.20;51.10;;;;;;5073860;28;20104;-77
2022/07/20 01:30:33;;;;;;;2.45;0.47;;;25.10;51.20;;;;;;5073573;28;20035;-77
2022/07/20 01:32:58;;;;;;;1.88;0.30;;;25.00;51.70;;;;;;5074288;28;20024;-77
2022/07/20 01:35:24;;;;;;;2.90;0.50;;;24.90;52.10;;;;;;5074014;28;20025;-77
2022/07/20 01:37:49;;;;;;;0.30;0.20;;;24.90;52.60;;;;;;5071755;28;20105;-77
2022/07/20 01:40:18;;;;;;;6.20;0.70;;;24.80;52.80;;;;;;5072392;28;20064;-77
2022/07/20 01:42:44;;;;;;;3.15;0.55;;;24.70;52.80;;;;;;5073586;28;20032;-77
2022/07/20 01:45:10;;;;;;;1.25;0.47;;;24.70;53.00;;;;;;5074158;28;20033;-77
2022/07/20 01:47:35;;;;;;;1.48;0.40;;;24.60;52.60;;;;;;5072280;28;20033;-77
2022/07/20 01:50:02;;;;;;;6.20;1.25;;;24.60;52.90;;;;;;5072015;28;20028;-77
2022/07/20 01:52:27;;;;;;;6.47;0.45;;;24.50;53.10;;;;;;5073412;28;20078;-77
2022/07/20 01:54:53;;;;;;;7.10;1.23;;;24.50;52.90;;;;;;5073430;28;20442;-77
2022/07/20 01:57:19;;;;;;;2.88;0.70;;;24.50;52.90;;;;;;5073458;28;20028;-77
2022/07/20 01:59:44;;;;;;;4.10;0.40;;;24.40;53.10;;;;;;5073640;28;20025;-77
2022/07/20 02:02:10;;;;;;;3.05;0.60;;;24.40;53.00;;;;;;5073397;28;20074;-77
2022/07/20 02:04:37;;;;;;;3.58;0.60;;;24.30;53.10;;;;;;5072118;28;20012;-77
2022/07/20 02:07:02;;;;;;;3.28;0.50;;;24.40;53.70;;;;;;5073263;28;20032;-77
2022/07/20 02:09:28;;;;;;;4.65;1.00;;;24.30;53.70;;;;;;5071888;28;20070;-77
2022/07/20 02:11:54;;;;;;;5.93;1.35;;;24.30;53.80;;;;;;5072053;28;20025;-77
2022/07/20 02:14:19;;;;;;;2.53;0.75;;;24.20;54.80;;;;;;5073536;28;20496;-77
2022/07/20 02:16:45;;;;;;;2.67;0.47;;;24.10;54.40;;;;;;5072009;28;20081;-76
2022/07/20 02:19:11;;;;;;;4.47;0.77;;;24.00;54.70;;;;;;5073726;28;20037;-77
2022/07/20 02:21:36;;;;;;;3.95;1.10;;;24.00;54.80;;;;;;5073435;28;20020;-77
2022/07/20 02:24:02;;;;;;;5.35;1.30;;;24.00;54.50;;;;;;5073187;28;20028;-77
2022/07/20 02:26:28;;;;;;;2.38;0.52;;;23.90;54.80;;;;;;5071827;28;20032;-77
2022/07/20 02:28:56;;;;;;;14.20;1.67;;;23.90;55.20;;;;;;5072954;28;20027;-77
2022/07/20 02:31:23;;;;;;;;;;;23.80;55.00;;;;;;5072280;28;20021;-77
2022/07/20 02:33:48;;;;;;;3.30;0.75;;;23.80;54.90;;;;;;5073134;28;19908;-77
2022/07/20 02:36:14;;;;;;;8.30;0.70;;;23.80;55.50;;;;;;5071826;28;20023;-77
2022/07/20 02:38:40;;;;;;;1.08;0.73;;;23.80;54.90;;;;;;5073355;28;20503;-77
2022/07/20 02:41:06;;;;;;;3.58;0.90;;;23.80;55.00;;;;;;5073226;28;20393;-77
2022/07/20 02:43:31;;;;;;;5.97;1.30;;;23.80;55.20;;;;;;5073310;28;20063;-77
2022/07/20 02:45:57;;;;;;;1.38;0.60;;;23.80;55.20;;;;;;5073011;28;20024;-77
2022/07/20 02:48:23;;;;;;;1.67;0.40;;;23.90;54.70;;;;;;5073346;28;20100;-77
2022/07/20 02:50:48;;;;;;;2.97;0.63;;;23.90;55.20;;;;;;5076778;28;20111;-77
2022/07/20 02:53:14;;;;;;;3.08;0.75;;;23.90;55.40;;;;;;5076730;28;20028;-77
2022/07/20 02:55:42;;;;;;;4.25;1.05;;;23.80;55.70;;;;;;5076839;28;20028;-77
2022/07/20 02:58:09;;;;;;;3.47;0.90;;;23.80;55.70;;;;;;5075615;28;20055;-77
2022/07/20 03:00:35;;;;;;;5.20;1.00;;;23.70;56.20;;;;;;5076684;28;20048;-77
2022/07/20 03:03:00;;;;;;;4.05;0.80;;;23.70;57.00;;;;;;5076904;28;20051;-77
2022/07/20 03:05:26;;;;;;;4.15;1.25;;;23.60;57.30;;;;;;5076446;28;20126;-77
2022/07/20 03:07:52;;;;;;;12.60;1.65;;;23.50;58.10;;;;;;5077082;28;20016;-77
2022/07/20 03:10:17;;;;;;;4.35;1.80;;;23.50;58.90;;;;;;5076394;28;20059;-77
2022/07/20 03:12:43;;;;;;;4.25;2.00;;;23.40;60.10;;;;;;5076799;28;20469;-77
2022/07/20 03:15:10;;;;;;;5.93;2.53;;;23.40;62.30;;;;;;5076440;28;20354;-77
2022/07/20 03:17:46;;;;;;;10.48;3.33;;;23.30;62.60;;;;;;5076264;28;20482;-77
2022/07/20 03:20:14;;;;;;;9.10;3.10;;;23.20;65.80;;;;;;5076250;28;20024;-77
2022/07/20 03:22:40;;;;;;;9.68;3.75;;;23.20;66.60;;;;;;5076877;28;20492;-77
2022/07/20 03:25:07;;;;;;;15.43;4.13;;;23.10;67.30;;;;;;5076268;28;20031;-77
2022/07/20 03:27:33;;;;;;;9.75;4.15;;;23.10;68.40;;;;;;5075018;28;20527;-77
2022/07/20 03:29:58;;;;;;;9.10;4.50;;;23.00;70.00;;;;;;5076021;28;20028;-77
2022/07/20 03:32:24;;;;;;;7.97;3.47;;;23.00;71.70;;;;;;5076512;28;20358;-77
2022/07/20 03:34:49;;;;;;;11.77;4.72;;;22.90;71.80;;;;;;5076077;28;20481;-77
2022/07/20 03:37:15;;;;;;;10.88;4.38;;;22.90;73.70;;;;;;5074743;28;20478;-77
2022/07/20 03:39:40;;;;;;;12.13;5.07;;;22.80;74.20;;;;;;5075000;28;20118;-77
2022/07/20 03:42:06;;;;;;;13.18;5.25;;;22.70;74.50;;;;;;5075961;28;20095;-77
2022/07/20 03:44:31;;;;;;;11.48;4.78;;;22.60;76.00;;;;;;5075919;28;20028;-77
2022/07/20 03:46:57;;;;;;;13.35;5.10;;;22.50;76.70;;;;;;5076117;28;20181;-77
2022/07/20 03:49:23;;;;;;;13.00;4.97;;;22.50;79.30;;;;;;5076147;28;20142;-77
2022/07/20 03:51:48;;;;;;;13.98;6.25;;;22.40;81.20;;;;;;5075811;28;20416;-77
2022/07/20 03:54:14;;;;;;;19.60;5.82;;;22.30;82.80;;;;;;5074489;28;20020;-77
2022/07/20 03:56:40;;;;;;;14.70;5.95;;;22.30;86.10;;;;;;5075792;28;20027;-77
2022/07/20 03:59:07;;;;;;;15.18;5.90;;;22.20;88.60;;;;;;5075515;28;20035;-77
2022/07/20 04:01:33;;;;;;;22.98;8.05;;;22.20;91.20;;;;;;5073671;28;20104;-77
2022/07/20 04:03:58;;;;;;;15.18;7.00;;;22.20;92.90;;;;;;5075533;28;20545;-77
2022/07/20 04:06:24;;;;;;;17.70;8.18;;;22.20;94.90;;;;;;5075603;28;20119;-77
2022/07/20 04:08:49;;;;;;;14.52;7.55;;;22.20;96.70;;;;;;5075276;28;20107;-77
2022/07/20 04:11:15;;;;;;;31.58;9.93;;;22.10;98.70;;;;;;5074170;28;20104;-77
2022/07/20 04:13:40;;;;;;;21.42;9.55;;;22.20;99.90;;;;;;5075339;28;20038;-77
2022/07/20 04:16:06;;;;;;;18.25;9.48;;;22.20;99.90;;;;;;5075347;28;20478;-77
2022/07/20 04:18:31;;;;;;;31.58;10.85;;;22.20;99.90;;;;;;5073965;28;20012;-77
2022/07/20 04:20:57;;;;;;;19.73;10.10;;;22.40;99.90;;;;;;5075135;28;20024;-77
2022/07/20 04:23:23;;;;;;;23.70;10.30;;;22.40;99.90;;;;;;5075171;28;20078;-77
2022/07/20 04:25:48;;;;;;;20.80;10.23;;;22.50;99.90;;;;;;5075125;28;20055;-77
2022/07/20 04:28:14;;;;;;;21.25;10.00;;;22.40;99.90;;;;;;5075267;28;20025;-77
2022/07/20 04:30:39;;;;;;;24.35;10.93;;;22.40;99.90;;;;;;5074931;28;20028;-77
2022/07/20 04:33:05;;;;;;;25.85;11.43;;;22.40;99.90;;;;;;5075241;28;20025;-77
2022/07/20 04:35:31;;;;;;;23.55;11.60;;;22.50;99.90;;;;;;5074234;28;20024;-77
2022/07/20 04:37:57;;;;;;;32.45;12.55;;;22.50;99.90;;;;;;5075216;28;20028;-77
2022/07/20 04:40:22;;;;;;;24.98;12.35;;;22.60;99.90;;;;;;5074785;28;20028;-77
2022/07/20 04:42:48;;;;;;;23.27;12.25;;;22.70;99.90;;;;;;5074777;28;20024;-77
2022/07/20 04:45:13;;;;;;;20.60;11.77;;;22.70;99.90;;;;;;5073450;28;20086;-77
2022/07/20 04:47:39;;;;;;;31.98;13.10;;;22.80;99.90;;;;;;5074763;28;20033;-77
2022/07/20 04:50:05;;;;;;;25.63;12.38;;;22.80;99.90;;;;;;5074728;28;20021;-77
2022/07/20 04:52:30;;;;;;;30.35;13.75;;;22.80;99.90;;;;;;5074428;28;20485;-77
2022/07/20 04:54:56;;;;;;;30.05;13.70;;;22.80;99.90;;;;;;5074827;28;20013;-77
2022/07/20 04:57:22;;;;;;;27.15;12.10;;;23.00;99.90;;;;;;5075013;28;20021;-77
2022/07/20 04:59:47;;;;;;;27.77;13.02;;;23.00;99.90;;;;;;5074374;28;20583;-77
2022/07/20 05:02:13;;;;;;;29.27;14.15;;;23.10;99.90;;;;;;5074558;28;20025;-77
2022/07/20 05:04:38;;;;;;;26.38;13.55;;;23.10;99.90;;;;;;5074346;28;20028;-77
2022/07/20 05:07:04;;;;;;;28.23;13.95;;;23.10;99.90;;;;;;5074297;28;20040;-77
2022/07/20 05:09:30;;;;;;;29.70;12.77;;;23.10;99.90;;;;;;5072833;28;20027;-77
2022/07/20 05:11:55;;;;;;;26.70;12.77;;;23.20;99.90;;;;;;5072217;28;20021;-77
2022/07/20 05:14:21;;;;;;;26.63;13.02;;;23.30;99.90;;;;;;5074559;28;20021;-77
2022/07/20 05:16:46;;;;;;;26.67;13.38;;;23.30;99.90;;;;;;5072940;28;20086;-75
2022/07/20 05:19:12;;;;;;;29.63;13.95;;;23.40;99.90;;;;;;5074303;28;20024;-75
2022/07/20 05:21:38;;;;;;;30.13;13.70;;;23.40;99.90;;;;;;5073259;28;20060;-75
2022/07/20 05:24:04;;;;;;;23.27;12.65;;;23.50;99.90;;;;;;5074451;28;20056;-75
2022/07/20 05:26:29;;;;;;;30.00;13.02;;;23.50;99.90;;;;;;5074468;28;20025;-75
2022/07/20 05:28:55;;;;;;;22.38;13.48;;;23.60;99.90;;;;;;5072785;28;20021;-75
2022/07/20 05:31:20;;;;;;;25.80;14.15;;;23.60;99.90;;;;;;5074746;28;20031;-75
2022/07/20 05:33:46;;;;;;;23.52;12.77;;;23.70;99.90;;;;;;5073580;28;20021;-75
2022/07/20 05:36:12;;;;;;;29.20;13.23;;;23.80;99.90;;;;;;5074311;28;20025;-75
2022/07/20 05:38:38;;;;;;;25.42;12.38;;;23.80;99.90;;;;;;5074367;28;20024;-75
2022/07/20 05:41:04;;;;;;;24.00;13.95;;;23.80;99.90;;;;;;5073987;28;20021;-75
2022/07/20 05:43:29;;;;;;;33.40;13.32;;;23.80;99.90;;;;;;5074514;28;20028;-75
2022/07/20 05:45:55;;;;;;;30.17;13.27;;;23.80;99.90;;;;;;5073945;28;20092;-75
2022/07/20 05:48:20;;;;;;;30.92;13.90;;;23.80;99.90;;;;;;5072568;28;20028;-74
2022/07/20 05:50:46;;;;;;;26.88;14.43;;;23.80;99.90;;;;;;5073600;28;20062;-75
2022/07/20 05:53:13;;;;;;;28.08;13.05;;;23.80;99.90;;;;;;5073811;28;20103;-74
2022/07/20 05:55:40;;;;;;;29.10;14.35;;;23.90;99.90;;;;;;5072552;28;20082;-74
2022/07/20 05:58:07;;;;;;;27.42;12.68;;;24.00;99.90;;;;;;5073676;28;20045;-74
2022/07/20 06:00:33;;;;;;;26.48;13.90;;;24.10;99.90;;;;;;5072448;28;20486;-74
2022/07/20 06:03:00;;;;;;;30.13;13.52;;;24.20;99.90;;;;;;5072860;28;20028;-74
2022/07/20 06:05:25;;;;;;;27.63;13.43;;;24.30;99.90;;;;;;5073679;28;20059;-74
2022/07/20 06:07:57;;;;;;;24.65;13.10;;;24.40;99.90;;;;;;5073541;28;20049;-74
2022/07/20 06:10:23;;;;;;;30.35;13.18;;;24.40;99.90;;;;;;5073371;28;20028;-74
2022/07/20 06:12:49;;;;;;;23.10;13.25;;;24.50;99.90;;;;;;5072342;28;20036;-74
2022/07/20 06:15:15;;;;;;;23.02;12.48;;;24.50;99.90;;;;;;5073383;28;20028;-74
2022/07/20 06:17:41;;;;;;;29.55;10.98;;;24.70;99.90;;;;;;5073597;28;20025;-74
2022/07/20 06:20:09;;;;;;;25.40;11.52;;;24.90;99.90;;;;;;5073339;28;20029;-74
2022/07/20 06:22:35;;;;;;;;;;;25.10;99.90;;;;;;5072502;28;20039;-74
2022/07/20 06:25:01;;;;;;;24.23;13.10;;;25.20;99.90;;;;;;5079397;28;19905;-74
2022/07/20 06:27:27;;;;;;;27.02;11.70;;;25.40;99.90;;;;;;5080212;28;20530;-75
2022/07/20 06:29:52;;;;;;;22.75;11.10;;;25.50;99.90;;;;;;5079774;28;20095;-74
2022/07/20 06:32:18;;;;;;;17.48;10.45;;;25.60;99.90;;;;;;5079887;28;20515;-74
2022/07/20 06:34:45;;;;;;;24.73;11.05;;;25.70;99.90;;;;;;5080194;28;20012;-75
2022/07/20 06:37:11;;;;;;;23.23;10.73;;;25.80;99.90;;;;;;5078488;28;20017;-74
2022/07/20 06:39:36;;;;;;;18.85;9.75;;;25.70;99.90;;;;;;5080152;28;20028;-74
2022/07/20 06:42:02;;;;;;;19.23;9.40;;;25.80;99.90;;;;;;5080336;28;20384;-74
2022/07/20 06:44:28;;;;;;;17.48;9.60;;;25.70;99.60;;;;;;5078530;28;20039;-76
2022/07/20 06:46:53;;;;;;;16.13;8.85;;;25.70;99.90;;;;;;5079618;28;20486;-76
2022/07/20 06:49:19;;;;;;;17.90;8.40;;;25.60;99.00;;;;;;5079487;28;20032;-76
2022/07/20 06:51:44;;;;;;;19.20;8.73;;;25.60;98.90;;;;;;5080026;28;20112;-76
2022/07/20 06:54:10;;;;;;;13.85;7.20;;;25.60;98.60;;;;;;5078347;28;20525;-76
2022/07/20 06:56:35;;;;;;;19.35;8.18;;;25.50;97.80;;;;;;5079531;28;20431;-76
2022/07/20 06:59:01;;;;;;;15.50;6.65;;;25.30;97.90;;;;;;5079485;28;20021;-76
2022/07/20 07:01:26;;;;;;;15.40;6.20;;;25.30;98.20;;;;;;5080116;28;20377;-76
2022/07/20 07:03:52;;;;;;;12.57;5.78;;;25.20;98.50;;;;;;5079480;28;20073;-76
2022/07/20 07:06:17;;;;;;;14.27;6.55;;;25.20;97.70;;;;;;5087906;23;20043;-77
2022/07/20 07:08:43;;;;;;;12.50;5.13;;;25.10;97.70;;;;;;5080004;28;20032;-76
2022/07/20 07:11:09;;;;;;;10.32;5.78;;;25.00;96.40;;;;;;5079240;28;20033;-77
2022/07/20 07:13:34;;;;;;;10.73;4.85;;;25.00;97.00;;;;;;5078199;28;20103;-77
2022/07/20 07:16:00;;;;;;;8.57;5.25;;;25.10;97.30;;;;;;5079454;28;20354;-77
2022/07/20 07:18:25;;;;;;;11.25;5.13;;;25.50;97.50;;;;;;5078229;28;20063;-77
2022/07/20 07:20:51;;;;;;;12.35;5.57;;;25.40;97.00;;;;;;5078080;28;20024;-77
2022/07/20 07:23:16;;;;;;;10.05;5.72;;;25.50;96.80;;;;;;5079971;28;20028;-77
2022/07/20 07:25:43;;;;;;;16.15;6.32;;;25.60;97.20;;;;;;5079391;28;20070;-77
2022/07/20 07:28:08;;;;;;;10.77;6.07;;;25.80;97.40;;;;;;5078102;28;20016;-77
2022/07/20 07:30:34;;;;;;;12.52;5.10;;;25.90;97.90;;;;;;5079284;28;20473;-77
2022/07/20 07:33:00;;;;;;;11.02;4.63;;;25.90;96.60;;;;;;5079282;28;20423;-77
2022/07/20 07:35:25;;;;;;;16.88;5.10;;;25.80;97.40;;;;;;5077413;28;20534;-77
2022/07/20 07:37:51;;;;;;;17.70;5.68;;;25.90;97.50;;;;;;5076148;28;20025;-77
2022/07/20 07:40:16;;;;;;;10.63;4.63;;;26.00;97.80;;;;;;5075889;28;20029;-77
2022/07/20 07:42:42;;;;;;;11.20;5.20;;;25.90;97.20;;;;;;5075928;28;20024;-77
2022/07/20 07:45:08;;;;;;;11.13;4.38;;;25.80;96.80;;;;;;5076136;28;20021;-77
2022/07/20 07:47:36;;;;;;;11.65;4.43;;;25.80;97.40;;;;;;5075886;28;20029;-77
2022/07/20 07:50:03;;;;;;;10.10;4.55;;;25.70;97.90;;;;;;5075576;28;20021;-77
2022/07/20 07:52:28;;;;;;;13.75;5.05;;;25.80;98.10;;;;;;5076131;28;20029;-77
2022/07/20 07:54:54;;;;;;;15.93;5.18;;;25.90;98.00;;;;;;5075716;28;20488;-77
2022/07/20 07:57:19;;;;;;;9.27;4.40;;;25.90;97.70;;;;;;5075684;28;20086;-77
2022/07/20 07:59:45;;;;;;;13.77;5.18;;;26.00;98.20;;;;;;5075640;28;20016;-78
2022/07/20 08:02:10;;;;;;;11.32;5.15;;;26.30;98.40;;;;;;5075581;28;20119;-77
2022/07/20 08:04:36;;;;;;;9.23;4.47;;;26.60;98.30;;;;;;5074190;28;20025;-77
2022/07/20 08:07:01;;;;;;;14.35;5.40;;;26.80;95.20;;;;;;5074150;28;20051;-77
2022/07/20 08:09:29;;;;;;;11.07;4.55;;;26.90;95.10;;;;;;5075436;28;20081;-77
2022/07/20 08:11:55;;;;;;;10.13;4.63;;;26.90;93.40;;;;;;5076000;28;20016;-77
2022/07/20 08:14:20;;;;;;;13.50;4.38;;;27.00;92.90;;;;;;5075366;28;20628;-77
2022/07/20 08:16:46;;;;;;;9.93;4.00;;;26.90;92.90;;;;;;5075403;28;20477;-77
2022/07/20 08:19:11;;;;;;;11.07;4.55;;;26.80;91.90;;;;;;5075058;28;20016;-78
2022/07/20 08:21:38;;;;;;;7.47;3.55;;;26.80;91.50;;;;;;5073884;28;20036;-77
2022/07/20 08:24:04;;;;;;;9.63;4.30;;;27.00;91.70;;;;;;5073895;28;20031;-78
2022/07/20 08:26:30;;;;;;;7.53;3.72;;;27.20;91.10;;;;;;5075258;28;20034;-77
2022/07/20 08:28:56;;;;;;;9.70;3.85;;;27.40;89.20;;;;;;5074919;28;20107;-76
2022/07/20 08:31:21;;;;;;;8.30;3.33;;;27.50;90.50;;;;;;5075114;28;20575;-77
2022/07/20 08:33:47;;;;;;;11.88;3.42;;;27.70;90.40;;;;;;5074000;28;20016;-78
2022/07/20 08:36:12;;;;;;;12.68;3.95;;;27.80;90.00;;;;;;5075068;28;20017;-77
2022/07/20 08:38:38;;;;;;;6.22;3.40;;;28.00;90.00;;;;;;5073770;28;20017;-77
2022/07/20 08:41:07;;;;;;;9.07;4.00;;;28.10;88.50;;;;;;5073561;28;20439;-77
2022/07/20 08:43:33;;;;;;;10.70;4.88;;;28.00;88.60;;;;;;5074853;28;20385;-77
2022/07/20 08:45:59;;;;;;;9.00;3.80;;;28.00;84.90;;;;;;5075349;28;20035;-77
2022/07/20 08:48:26;;;;;;;12.57;3.92;;;27.80;85.90;;;;;;5073282;28;20032;-77
2022/07/20 08:50:52;;;;;;;12.20;4.10;;;27.90;87.40;;;;;;5074824;28;20028;-77
2022/07/20 08:53:19;;;;;;;8.85;3.78;;;28.00;87.50;;;;;;5074891;28;20484;-77
2022/07/20 08:55:45;;;;;;;5.50;2.70;;;28.00;83.80;;;;;;5074467;28;20031;-77
2022/07/20 08:58:11;;;;;;;12.63;3.95;;;27.90;84.40;;;;;;5074416;28;20052;-77
2022/07/20 09:00:37;;;;;;;7.30;3.95;;;27.60;86.60;;;;;;5072989;28;20465;-77
2022/07/20 09:03:05;;;;;;;5.80;3.28;;;27.70;87.30;;;;;;5074376;28;20028;-77
2022/07/20 09:05:35;;;;;;;8.20;3.28;;;27.90;86.00;;;;;;5072937;28;20044;-77
2022/07/20 09:08:01;;;;;;;4.90;3.33;;;28.00;84.60;;;;;;5074608;28;20055;-77
2022/07/20 09:10:32;;;;;;;10.60;3.08;;;28.20;82.10;;;;;;5072934;28;20473;-77
2022/07/20 09:13:17;;;;;;;9.18;3.58;;;28.30;85.50;;;;;;5074290;28;20468;-78
2022/07/20 09:15:53;;;;;;;12.68;3.88;;;28.20;82.10;;;;;;5073065;28;20048;-78
2022/07/20 09:18:31;;;;;;;5.90;3.30;;;28.30;81.50;;;;;;5074183;28;20017;-78
2022/07/20 09:20:58;;;;;;;6.22;3.42;;;28.40;82.70;;;;;;5074661;28;20074;-77
2022/07/20 09:23:41;;;;;;;9.82;2.88;;;28.60;80.60;;;;;;5072788;28;20048;-77
2022/07/20 09:26:12;;;;;;;6.35;2.90;;;28.50;79.80;;;;;;5074066;28;20028;-77
2022/07/20 09:28:38;;;;;;;5.60;3.15;;;28.50;79.10;;;;;;5073918;28;20024;-77
2022/07/20 09:31:18;;;;;;;5.82;3.42;;;28.40;80.20;;;;;;5073753;28;20035;-78
2022/07/20 09:33:56;;;;;;;6.75;3.25;;;28.50;79.80;;;;;;5072640;28;20017;-78
2022/07/20 09:36:24;;;;;;;7.03;3.10;;;28.60;79.60;;;;;;5074431;28;20051;-78
2022/07/20 09:38:50;;;;;;;8.35;3.13;;;28.70;80.40;;;;;;5074054;28;20324;-77
2022/07/20 09:41:30;;;;;;;5.40;2.25;;;28.80;75.90;;;;;;5072648;28;20020;-77
2022/07/20 09:43:58;;;;;;;7.18;3.47;;;29.00;75.50;;;;;;5072556;28;20034;-77
2022/07/20 09:46:26;;;;;;;5.95;2.83;;;29.20;72.30;;;;;;5072460;28;20027;-78
2022/07/20 09:48:57;;;;;;;5.20;2.40;;;29.40;72.70;;;;;;5073586;28;20031;-77
2022/07/20 09:51:22;;;;;;;6.40;2.88;;;29.70;72.50;;;;;;5072469;28;20036;-77
2022/07/20 09:53:50;;;;;;;7.85;2.08;;;29.90;68.10;;;;;;5073642;28;20028;-77
2022/07/20 09:56:17;;;;;;;6.75;2.40;;;29.80;68.10;;;;;;5073515;28;20107;-77
2022/07/20 09:58:48;;;;;;;3.13;1.87;;;29.50;70.40;;;;;;5073317;28;20142;-75
2022/07/20 10:01:20;;;;;;;3.88;1.95;;;29.70;67.60;;;;;;5073387;28;20597;-75
2022/07/20 10:03:47;;;;;;;7.93;2.60;;;29.50;66.90;;;;;;5074633;28;20029;-76
2022/07/20 10:06:15;;;;;;;6.83;2.10;;;29.50;68.20;;;;;;5073229;28;20037;-76
2022/07/20 10:08:41;;;;;;;2.67;0.98;;;29.50;69.60;;;;;;5073743;28;20025;-76
2022/07/20 10:11:07;;;;;;;6.18;2.22;;;29.60;66.80;;;;;;5073232;28;20024;-76
2022/07/20 10:13:33;;;;;;;3.53;1.50;;;29.90;67.70;;;;;;5073364;28;20066;-76
2022/07/20 10:16:20;;;;;;;6.38;2.17;;;30.00;66.00;;;;;;5073349;28;20028;-76
2022/07/20 10:18:47;;;;;;;3.97;1.70;;;30.40;67.40;;;;;;5073294;28;20500;-76
2022/07/20 10:21:42;;;;;;;4.57;1.33;;;30.50;65.90;;;;;;5073200;28;20025;-76
2022/07/20 10:24:29;;;;;;;3.45;1.67;;;30.40;65.40;;;;;;5073283;28;20541;-76
2022/07/20 10:27:13;;;;;;;11.75;2.97;;;30.30;67.20;;;;;;5073170;28;20028;-75
2022/07/20 10:29:52;;;;;;;3.80;2.20;;;30.20;68.10;;;;;;5073142;28;20035;-75
2022/07/20 10:32:28;;;;;;;5.10;1.60;;;30.00;67.10;;;;;;5073224;28;20385;-75
2022/07/20 10:35:25;;;;;;;6.47;2.13;;;29.90;67.40;;;;;;5073086;28;20013;-75
2022/07/20 10:37:52;;;;;;;4.05;1.15;;;29.90;68.60;;;;;;5073354;28;20017;-76
2022/07/20 10:40:25;;;;;;;6.10;1.30;;;30.30;67.50;;;;;;5071766;28;20116;-76
2022/07/20 10:43:13;;;;;;;3.30;1.05;;;30.70;64.10;;;;;;5073037;28;20078;-76
2022/07/20 10:45:39;;;;;;;2.67;0.90;;;30.70;65.40;;;;;;5071823;28;20043;-76
2022/07/20 10:48:11;;;;;;;5.07;1.83;;;30.60;65.20;;;;;;5071854;28;20033;-76
2022/07/20 10:50:53;;;;;;;2.55;1.30;;;30.30;65.30;;;;;;5072941;28;20481;-76
2022/07/20 10:53:24;;;;;;;3.53;1.00;;;30.10;66.00;;;;;;5071663;28;20047;-76
2022/07/20 10:55:53;;;;;;;4.53;1.30;;;30.20;65.80;;;;;;5073014;28;20488;-76
2022/07/20 10:58:22;;;;;;;8.93;1.65;;;30.10;64.80;;;;;;5073096;28;20020;-76
2022/07/20 11:00:50;;;;;;;4.05;0.93;;;30.20;64.80;;;;;;5072802;28;20028;-76
2022/07/20 11:03:18;;;;;;;4.38;0.82;;;29.90;65.30;;;;;;5073213;28;20544;-76
2022/07/20 11:05:44;;;;;;;;;;;29.90;65.20;;;;;;5073136;28;20062;-76
2022/07/20 11:08:11;;;;;;;2.58;0.65;;;30.10;66.10;;;;;;5072800;28;20369;-76
2022/07/20 11:10:38;;;;;;;3.40;1.23;;;30.30;65.90;;;;;;5073422;28;20108;-75
2022/07/20 11:13:06;;;;;;;3.90;0.65;;;30.60;64.90;;;;;;5076398;28;20021;-75
2022/07/20 11:15:38;;;;;;;1.92;0.70;;;30.60;65.90;;;;;;5076452;28;20075;-75
2022/07/20 11:18:05;;;;;;;7.07;0.98;;;30.80;63.10;;;;;;5076457;28;20025;-75
2022/07/20 11:20:31;;;;;;;2.38;0.80;;;30.50;63.10;;;;;;5076388;28;20025;-75
2022/07/20 11:22:57;;;;;;;2.08;0.55;;;30.10;64.80;;;;;;5075080;28;20024;-75
2022/07/20 11:25:24;;;;;;;2.83;0.70;;;29.90;65.00;;;;;;5075295;28;20508;-74
2022/07/20 11:28:00;;;;;;;1.95;0.47;;;29.80;64.90;;;;;;5076442;28;20506;-74
2022/07/20 11:30:34;;;;;;;1.98;0.77;;;29.70;66.00;;;;;;5076837;28;20051;-74
2022/07/20 11:33:00;;;;;;;1.50;0.63;;;30.20;65.70;;;;;;5074865;28;20535;-74
2022/07/20 11:35:26;;;;;;;2.45;0.68;;;30.40;63.30;;;;;;5076635;28;20024;-74
2022/07/20 11:37:52;;;;;;;1.70;0.80;;;30.50;64.80;;;;;;5076081;28;20098;-74
2022/07/20 11:40:19;;;;;;;4.20;1.17;;;30.50;64.10;;;;;;5075889;28;20020;-75
2022/07/20 11:43:08;;;;;;;3.65;0.88;;;30.60;62.90;;;;;;5074664;28;20048;-74
2022/07/20 11:45:34;;;;;;;55.70;5.70;;;30.70;62.70;;;;;;5075995;28;20460;-74
2022/07/20 11:48:03;;;;;;;39.70;3.65;;;30.50;64.70;;;;;;5075963;28;20384;-74
2022/07/20 11:50:32;;;;;;;6.50;1.30;;;30.60;63.50;;;;;;5075731;28;20028;-74
2022/07/20 11:52:58;;;;;;;2.03;0.45;;;30.70;62.20;;;;;;5076120;28;20359;-74
2022/07/20 11:55:37;;;;;;;2.13;0.50;;;30.70;63.40;;;;;;5075731;28;20017;-74
2022/07/20 11:58:03;;;;;;;3.50;0.70;;;31.20;62.50;;;;;;5076171;28;20031;-74
2022/07/20 12:00:29;;;;;;;8.57;0.68;;;31.20;61.40;;;;;;5074261;28;20030;-74
2022/07/20 12:02:57;;;;;;;1.65;0.60;;;31.20;60.70;;;;;;5075597;28;20070;-74
2022/07/20 12:05:23;;;;;;;2.70;0.63;;;31.00;60.50;;;;;;5075971;28;20016;-74
2022/07/20 12:10:33;;;;;;;2.15;0.57;;;31.10;61.10;;;;;;5076002;28;20036;-74
2022/07/20 12:13:07;;;;;;;2.38;0.77;;;31.20;60.50;;;;;;5075372;28;20394;-74
2022/07/20 12:15:34;;;;;;;2.05;0.38;;;31.60;61.40;;;;;;5074107;28;20036;-74
2022/07/20 12:18:00;;;;;;;2.83;0.68;;;31.30;60.70;;;;;;5075377;28;20021;-74
2022/07/20 12:20:26;;;;;;;1.63;0.60;;;31.10;61.50;;;;;;5075171;28;20086;-74
2022/07/20 12:22:57;;;;;;;5.40;1.40;;;31.00;63.00;;;;;;5075265;28;20040;-74
2022/07/20 12:25:35;;;;;;;8.23;1.77;;;30.90;62.10;;;;;;5075584;28;20108;-74
2022/07/20 12:28:01;;;;;;;2.33;0.90;;;30.50;62.70;;;;;;5073840;28;20119;-74
2022/07/20 12:30:41;;;;;;;3.50;1.15;;;30.00;63.90;;;;;;5074864;28;20103;-74
2022/07/20 12:33:12;;;;;;;1.58;0.88;;;29.50;65.70;;;;;;5074938;28;20021;-75
2022/07/20 12:35:43;;;;;;;2.88;1.45;;;29.10;68.30;;;;;;5073941;28;20020;-74
2022/07/20 12:38:10;;;;;;;5.18;1.67;;;28.70;70.10;;;;;;5074846;28;20074;-74
2022/07/20 12:40:42;;;;;;;5.30;1.48;;;28.10;72.00;;;;;;5074707;28;20020;-74
2022/07/20 12:43:31;;;;;;;4.88;1.55;;;27.60;73.60;;;;;;5074807;28;20025;-74
2022/07/20 12:46:00;;;;;;;3.92;1.10;;;27.30;75.30;;;;;;5075803;28;20424;-74
2022/07/20 12:48:26;;;;;;;3.67;0.90;;;27.10;75.70;;;;;;5074623;28;20044;-74